sensor_id;sensor_type;location;lat;lon;timestamp;P1;durP1;ratioP1;P2;durP2;ratioP2
73132;SDS011;61320;52.008;4.530;2023-03-19T00:01:46;10.61;;;10.61;;
73132;SDS011;61320;52.008;4.530;2023-03-19T00:04:11;11.03;;;11.03;;
73132;SDS011;61320;52.008;4.530;2023-03-19T00:06:37;10.63;;;10.63;;
73132;SDS011;61320;52.008;4.530;2023-03-19T00:09:03;11.19;;;11.19;;
73132;SDS011;61320;52.008;4.530;2023-03-19T00:11:29;11.36;;;11.36;;
73132;SDS011;61320;52.008;4.530;2023-03-19T00:13:55;11.21;;;11.21;;
73132;SDS011;61320;52.008;4.530;2023-03-19T00:16:21;10.96;;;10.96;;
73132;SDS011;61320;52.008;4.530;2023-03-19T00:18:46;11.93;;;11.93;;
73132;SDS011;61320;52.008;4.530;2023-03-19T00:21:13;11.77;;;11.77;;
73132;SDS011;61320;52.008;4.530;2023-03-19T00:23:39;12.49;;;12.49;;
73132;SDS011;61320;52.008;4.530;2023-03-19T00:26:05;12.53;;;12.53;;
73132;SDS011;61320;52.008;4.530;2023-03-19T00:28:30;12.53;;;12.53;;
73132;SDS011;61320;52.008;4.530;2023-03-19T00:30:56;12.71;;;12.71;;
73132;SDS011;61320;52.008;4.530;2023-03-19T00:33:22;12.27;;;12.27;;
73132;SDS011;61320;52.008;4.530;2023-03-19T00:35:48;12.64;;;12.64;;
73132;SDS011;61320;52.008;4.530;2023-03-19T00:38:13;13.35;;;13.35;;
73132;SDS011;61320;52.008;4.530;2023-03-19T00:40:39;13.93;;;13.93;;
73132;SDS011;61320;52.008;4.530;2023-03-19T00:43:05;13.51;;;13.51;;
73132;SDS011;61320;52.008;4.530;2023-03-19T00:45:31;13.83;;;13.83;;
73132;SDS011;61320;52.008;4.530;2023-03-19T00:47:56;13.72;;;13.72;;
73132;SDS011;61320;52.008;4.530;2023-03-19T00:50:22;13.82;;;13.82;;
73132;SDS011;61320;52.008;4.530;2023-03-19T00:52:49;14.25;;;14.25;;
73132;SDS011;61320;52.008;4.530;2023-03-19T00:55:16;14.50;;;14.50;;
73132;SDS011;61320;52.008;4.530;2023-03-19T00:57:42;14.47;;;14.47;;
73132;SDS011;61320;52.008;4.530;2023-03-19T01:00:08;16.33;;;16.33;;
73132;SDS011;61320;52.008;4.530;2023-03-19T01:02:35;17.38;;;17.38;;
73132;SDS011;61320;52.008;4.530;2023-03-19T01:05:01;17.88;;;17.88;;
73132;SDS011;61320;52.008;4.530;2023-03-19T01:07:27;18.04;;;18.04;;
73132;SDS011;61320;52.008;4.530;2023-03-19T01:09:52;17.47;;;17.47;;
73132;SDS011;61320;52.008;4.530;2023-03-19T01:12:17;17.45;;;17.45;;
73132;SDS011;61320;52.008;4.530;2023-03-19T01:14:44;17.69;;;17.69;;
73132;SDS011;61320;52.008;4.530;2023-03-19T01:17:10;18.35;;;18.35;;
73132;SDS011;61320;52.008;4.530;2023-03-19T01:19:35;18.27;;;18.19;;
73132;SDS011;61320;52.008;4.530;2023-03-19T01:22:01;17.48;;;17.41;;
73132;SDS011;61320;52.008;4.530;2023-03-19T01:24:30;17.23;;;17.23;;
73132;SDS011;61320;52.008;4.530;2023-03-19T01:26:56;16.96;;;16.96;;
73132;SDS011;61320;52.008;4.530;2023-03-19T01:29:21;17.07;;;17.07;;
73132;SDS011;61320;52.008;4.530;2023-03-19T01:31:47;16.76;;;16.61;;
73132;SDS011;61320;52.008;4.530;2023-03-19T01:34:12;16.94;;;16.83;;
73132;SDS011;61320;52.008;4.530;2023-03-19T01:36:38;16.78;;;16.78;;
73132;SDS011;61320;52.008;4.530;2023-03-19T01:39:05;17.13;;;17.13;;
73132;SDS011;61320;52.008;4.530;2023-03-19T01:41:30;17.55;;;17.55;;
73132;SDS011;61320;52.008;4.530;2023-03-19T01:43:56;18.92;;;18.54;;
73132;SDS011;61320;52.008;4.530;2023-03-19T01:46:25;19.82;;;19.25;;
73132;SDS011;61320;52.008;4.530;2023-03-19T01:48:59;19.42;;;19.18;;
73132;SDS011;61320;52.008;4.530;2023-03-19T01:51:29;20.81;;;20.32;;
73132;SDS011;61320;52.008;4.530;2023-03-19T01:54:01;20.91;;;20.42;;
73132;SDS011;61320;52.008;4.530;2023-03-19T01:56:33;21.49;;;20.79;;
73132;SDS011;61320;52.008;4.530;2023-03-19T01:59:03;23.07;;;22.01;;
73132;SDS011;61320;52.008;4.530;2023-03-19T02:02:00;21.50;;;20.87;;
73132;SDS011;61320;52.008;4.530;2023-03-19T02:04:31;22.51;;;21.83;;
73132;SDS011;61320;52.008;4.530;2023-03-19T02:07:01;23.52;;;22.60;;
73132;SDS011;61320;52.008;4.530;2023-03-19T02:09:28;23.49;;;22.49;;
73132;SDS011;61320;52.008;4.530;2023-03-19T02:11:55;22.68;;;21.82;;
73132;SDS011;61320;52.008;4.530;2023-03-19T02:14:23;23.48;;;23.05;;
73132;SDS011;61320;52.008;4.530;2023-03-19T02:16:49;22.68;;;22.26;;
73132;SDS011;61320;52.008;4.530;2023-03-19T02:19:16;23.79;;;22.97;;
73132;SDS011;61320;52.008;4.530;2023-03-19T02:21:49;22.99;;;22.32;;
73132;SDS011;61320;52.008;4.530;2023-03-19T02:24:19;21.67;;;20.81;;
73132;SDS011;61320;52.008;4.530;2023-03-19T02:26:59;19.55;;;18.87;;
73132;SDS011;61320;52.008;4.530;2023-03-19T02:29:26;16.10;;;16.09;;
73132;SDS011;61320;52.008;4.530;2023-03-19T02:31:51;15.73;;;15.41;;
73132;SDS011;61320;52.008;4.530;2023-03-19T02:37:28;13.82;;;13.79;;
73132;SDS011;61320;52.008;4.530;2023-03-19T02:39:48;13.34;;;13.28;;
73132;SDS011;61320;52.008;4.530;2023-03-19T02:42:22;12.39;;;12.33;;
73132;SDS011;61320;52.008;4.530;2023-03-19T02:44:52;12.69;;;12.69;;
73132;SDS011;61320;52.008;4.530;2023-03-19T02:47:17;12.15;;;12.15;;
73132;SDS011;61320;52.008;4.530;2023-03-19T02:49:43;11.43;;;11.43;;
73132;SDS011;61320;52.008;4.530;2023-03-19T02:52:09;11.54;;;11.54;;
73132;SDS011;61320;52.008;4.530;2023-03-19T02:54:35;11.42;;;11.42;;
73132;SDS011;61320;52.008;4.530;2023-03-19T02:57:00;11.24;;;11.24;;
73132;SDS011;61320;52.008;4.530;2023-03-19T02:59:26;11.40;;;11.40;;
73132;SDS011;61320;52.008;4.530;2023-03-19T03:01:51;10.95;;;10.95;;
73132;SDS011;61320;52.008;4.530;2023-03-19T03:04:17;11.03;;;11.03;;
73132;SDS011;61320;52.008;4.530;2023-03-19T03:06:43;11.97;;;11.97;;
73132;SDS011;61320;52.008;4.530;2023-03-19T03:09:10;11.51;;;11.51;;
73132;SDS011;61320;52.008;4.530;2023-03-19T03:11:36;11.22;;;11.22;;
73132;SDS011;61320;52.008;4.530;2023-03-19T03:14:02;11.39;;;11.39;;
73132;SDS011;61320;52.008;4.530;2023-03-19T03:16:27;11.77;;;11.77;;
73132;SDS011;61320;52.008;4.530;2023-03-19T03:18:53;12.44;;;12.44;;
73132;SDS011;61320;52.008;4.530;2023-03-19T03:21:18;12.55;;;12.48;;
73132;SDS011;61320;52.008;4.530;2023-03-19T03:23:45;12.35;;;12.35;;
73132;SDS011;61320;52.008;4.530;2023-03-19T03:26:12;13.18;;;13.18;;
73132;SDS011;61320;52.008;4.530;2023-03-19T03:28:38;14.43;;;14.21;;
73132;SDS011;61320;52.008;4.530;2023-03-19T03:31:04;17.62;;;17.49;;
73132;SDS011;61320;52.008;4.530;2023-03-19T03:33:29;23.19;;;23.17;;
73132;SDS011;61320;52.008;4.530;2023-03-19T03:35:55;22.98;;;22.98;;
73132;SDS011;61320;52.008;4.530;2023-03-19T03:38:21;23.14;;;22.95;;
73132;SDS011;61320;52.008;4.530;2023-03-19T03:40:50;22.20;;;22.13;;
73132;SDS011;61320;52.008;4.530;2023-03-19T03:43:19;23.26;;;23.04;;
73132;SDS011;61320;52.008;4.530;2023-03-19T03:45:46;27.94;;;27.24;;
73132;SDS011;61320;52.008;4.530;2023-03-19T03:48:13;29.02;;;28.76;;
73132;SDS011;61320;52.008;4.530;2023-03-19T03:50:39;28.83;;;28.73;;
73132;SDS011;61320;52.008;4.530;2023-03-19T03:53:05;29.48;;;29.41;;
73132;SDS011;61320;52.008;4.530;2023-03-19T03:55:30;32.90;;;32.60;;
73132;SDS011;61320;52.008;4.530;2023-03-19T03:57:57;35.89;;;34.81;;
73132;SDS011;61320;52.008;4.530;2023-03-19T04:00:23;39.74;;;37.55;;
73132;SDS011;61320;52.008;4.530;2023-03-19T04:02:49;38.90;;;37.65;;
73132;SDS011;61320;52.008;4.530;2023-03-19T04:05:15;39.36;;;38.14;;
73132;SDS011;61320;52.008;4.530;2023-03-19T04:07:41;40.62;;;39.37;;
73132;SDS011;61320;52.008;4.530;2023-03-19T04:10:08;43.27;;;40.80;;
73132;SDS011;61320;52.008;4.530;2023-03-19T04:12:36;43.31;;;41.22;;
73132;SDS011;61320;52.008;4.530;2023-03-19T04:15:06;43.03;;;40.84;;
73132;SDS011;61320;52.008;4.530;2023-03-19T04:17:33;44.15;;;41.41;;
73132;SDS011;61320;52.008;4.530;2023-03-19T04:20:00;45.46;;;42.83;;
73132;SDS011;61320;52.008;4.530;2023-03-19T04:22:26;46.34;;;43.76;;
73132;SDS011;61320;52.008;4.530;2023-03-19T04:24:52;48.80;;;46.19;;
73132;SDS011;61320;52.008;4.530;2023-03-19T04:27:18;48.66;;;46.06;;
73132;SDS011;61320;52.008;4.530;2023-03-19T04:29:43;48.02;;;45.58;;
73132;SDS011;61320;52.008;4.530;2023-03-19T04:32:09;48.60;;;45.95;;
73132;SDS011;61320;52.008;4.530;2023-03-19T04:34:34;49.50;;;46.99;;
73132;SDS011;61320;52.008;4.530;2023-03-19T04:37:01;49.94;;;47.42;;
73132;SDS011;61320;52.008;4.530;2023-03-19T04:39:27;50.70;;;48.06;;
73132;SDS011;61320;52.008;4.530;2023-03-19T04:41:53;51.55;;;48.66;;
73132;SDS011;61320;52.008;4.530;2023-03-19T04:44:19;53.56;;;50.19;;
73132;SDS011;61320;52.008;4.530;2023-03-19T04:46:44;52.66;;;49.23;;
73132;SDS011;61320;52.008;4.530;2023-03-19T04:49:10;53.69;;;50.57;;
73132;SDS011;61320;52.008;4.530;2023-03-19T04:51:37;53.12;;;50.61;;
73132;SDS011;61320;52.008;4.530;2023-03-19T04:54:03;53.59;;;50.74;;
73132;SDS011;61320;52.008;4.530;2023-03-19T04:56:30;53.88;;;50.67;;
73132;SDS011;61320;52.008;4.530;2023-03-19T04:58:56;50.23;;;47.20;;
73132;SDS011;61320;52.008;4.530;2023-03-19T05:01:21;49.01;;;46.30;;
73132;SDS011;61320;52.008;4.530;2023-03-19T05:03:47;51.25;;;48.06;;
73132;SDS011;61320;52.008;4.530;2023-03-19T05:06:12;54.52;;;51.09;;
73132;SDS011;61320;52.008;4.530;2023-03-19T05:08:38;54.77;;;51.69;;
73132;SDS011;61320;52.008;4.530;2023-03-19T05:11:03;56.37;;;52.82;;
73132;SDS011;61320;52.008;4.530;2023-03-19T05:13:29;53.88;;;50.36;;
73132;SDS011;61320;52.008;4.530;2023-03-19T05:15:54;51.64;;;48.36;;
73132;SDS011;61320;52.008;4.530;2023-03-19T05:18:20;50.94;;;47.81;;
73132;SDS011;61320;52.008;4.530;2023-03-19T05:20:47;50.76;;;47.83;;
73132;SDS011;61320;52.008;4.530;2023-03-19T05:23:12;50.59;;;47.27;;
73132;SDS011;61320;52.008;4.530;2023-03-19T05:25:38;49.92;;;46.79;;
73132;SDS011;61320;52.008;4.530;2023-03-19T05:28:05;49.30;;;45.88;;
73132;SDS011;61320;52.008;4.530;2023-03-19T05:30:32;49.82;;;46.07;;
73132;SDS011;61320;52.008;4.530;2023-03-19T05:32:58;49.15;;;45.24;;
73132;SDS011;61320;52.008;4.530;2023-03-19T05:35:24;46.81;;;42.85;;
73132;SDS011;61320;52.008;4.530;2023-03-19T05:37:53;44.61;;;40.61;;
73132;SDS011;61320;52.008;4.530;2023-03-19T05:40:19;46.65;;;41.81;;
73132;SDS011;61320;52.008;4.530;2023-03-19T05:42:46;49.13;;;43.77;;
73132;SDS011;61320;52.008;4.530;2023-03-19T05:45:12;53.09;;;46.50;;
73132;SDS011;61320;52.008;4.530;2023-03-19T05:47:38;53.27;;;46.91;;
73132;SDS011;61320;52.008;4.530;2023-03-19T05:50:04;57.54;;;50.67;;
73132;SDS011;61320;52.008;4.530;2023-03-19T05:52:30;59.05;;;51.79;;
73132;SDS011;61320;52.008;4.530;2023-03-19T05:54:56;60.86;;;53.24;;
73132;SDS011;61320;52.008;4.530;2023-03-19T05:57:21;59.07;;;52.21;;
73132;SDS011;61320;52.008;4.530;2023-03-19T05:59:47;57.55;;;51.34;;
73132;SDS011;61320;52.008;4.530;2023-03-19T06:02:12;55.61;;;49.56;;
73132;SDS011;61320;52.008;4.530;2023-03-19T06:04:38;57.47;;;50.46;;
73132;SDS011;61320;52.008;4.530;2023-03-19T06:07:03;58.90;;;50.93;;
73132;SDS011;61320;52.008;4.530;2023-03-19T06:09:29;57.07;;;49.46;;
73132;SDS011;61320;52.008;4.530;2023-03-19T06:11:54;60.00;;;51.57;;
73132;SDS011;61320;52.008;4.530;2023-03-19T06:14:20;59.52;;;51.65;;
73132;SDS011;61320;52.008;4.530;2023-03-19T06:16:46;60.81;;;52.61;;
73132;SDS011;61320;52.008;4.530;2023-03-19T06:19:11;60.30;;;51.95;;
73132;SDS011;61320;52.008;4.530;2023-03-19T06:21:36;60.52;;;52.13;;
73132;SDS011;61320;52.008;4.530;2023-03-19T06:24:02;64.85;;;55.13;;
73132;SDS011;61320;52.008;4.530;2023-03-19T06:26:28;61.51;;;52.11;;
73132;SDS011;61320;52.008;4.530;2023-03-19T06:28:53;59.72;;;50.91;;
73132;SDS011;61320;52.008;4.530;2023-03-19T06:31:18;58.68;;;50.75;;
73132;SDS011;61320;52.008;4.530;2023-03-19T06:33:44;59.04;;;50.58;;
73132;SDS011;61320;52.008;4.530;2023-03-19T06:36:13;57.95;;;49.97;;
73132;SDS011;61320;52.008;4.530;2023-03-19T06:38:39;52.83;;;46.49;;
73132;SDS011;61320;52.008;4.530;2023-03-19T06:41:04;53.79;;;47.15;;
73132;SDS011;61320;52.008;4.530;2023-03-19T06:43:30;53.97;;;47.03;;
73132;SDS011;61320;52.008;4.530;2023-03-19T06:45:55;54.18;;;46.52;;
73132;SDS011;61320;52.008;4.530;2023-03-19T06:48:21;48.82;;;43.58;;
73132;SDS011;61320;52.008;4.530;2023-03-19T06:50:47;48.79;;;42.95;;
73132;SDS011;61320;52.008;4.530;2023-03-19T06:53:13;48.85;;;42.77;;
73132;SDS011;61320;52.008;4.530;2023-03-19T06:55:39;47.63;;;42.11;;
73132;SDS011;61320;52.008;4.530;2023-03-19T06:58:05;49.56;;;43.06;;
73132;SDS011;61320;52.008;4.530;2023-03-19T07:00:31;49.03;;;43.10;;
73132;SDS011;61320;52.008;4.530;2023-03-19T07:02:57;49.42;;;43.40;;
73132;SDS011;61320;52.008;4.530;2023-03-19T07:05:22;50.20;;;43.44;;
73132;SDS011;61320;52.008;4.530;2023-03-19T07:07:48;49.05;;;42.20;;
73132;SDS011;61320;52.008;4.530;2023-03-19T07:10:13;46.76;;;40.60;;
73132;SDS011;61320;52.008;4.530;2023-03-19T07:12:38;45.13;;;39.41;;
73132;SDS011;61320;52.008;4.530;2023-03-19T07:15:04;42.64;;;38.36;;
73132;SDS011;61320;52.008;4.530;2023-03-19T07:17:30;41.76;;;37.43;;
73132;SDS011;61320;52.008;4.530;2023-03-19T07:19:56;41.17;;;37.28;;
73132;SDS011;61320;52.008;4.530;2023-03-19T07:22:21;41.59;;;37.50;;
73132;SDS011;61320;52.008;4.530;2023-03-19T07:24:47;39.30;;;36.10;;
73132;SDS011;61320;52.008;4.530;2023-03-19T07:27:12;40.99;;;37.80;;
73132;SDS011;61320;52.008;4.530;2023-03-19T07:29:38;42.33;;;38.52;;
73132;SDS011;61320;52.008;4.530;2023-03-19T07:32:03;42.59;;;38.84;;
73132;SDS011;61320;52.008;4.530;2023-03-19T07:34:29;44.70;;;40.37;;
73132;SDS011;61320;52.008;4.530;2023-03-19T07:36:55;44.66;;;40.67;;
73132;SDS011;61320;52.008;4.530;2023-03-19T07:39:20;45.22;;;41.57;;
73132;SDS011;61320;52.008;4.530;2023-03-19T07:41:46;45.41;;;41.57;;
73132;SDS011;61320;52.008;4.530;2023-03-19T07:44:13;46.13;;;41.99;;
73132;SDS011;61320;52.008;4.530;2023-03-19T07:46:39;46.61;;;42.37;;
73132;SDS011;61320;52.008;4.530;2023-03-19T07:49:04;46.75;;;42.62;;
73132;SDS011;61320;52.008;4.530;2023-03-19T07:51:30;47.38;;;43.10;;
73132;SDS011;61320;52.008;4.530;2023-03-19T07:53:55;49.24;;;44.64;;
73132;SDS011;61320;52.008;4.530;2023-03-19T07:56:21;47.03;;;43.00;;
73132;SDS011;61320;52.008;4.530;2023-03-19T07:58:47;49.18;;;44.36;;
73132;SDS011;61320;52.008;4.530;2023-03-19T08:01:14;48.77;;;44.50;;
73132;SDS011;61320;52.008;4.530;2023-03-19T08:03:40;49.06;;;44.97;;
73132;SDS011;61320;52.008;4.530;2023-03-19T08:06:05;51.05;;;46.31;;
73132;SDS011;61320;52.008;4.530;2023-03-19T08:08:31;53.59;;;47.85;;
73132;SDS011;61320;52.008;4.530;2023-03-19T08:10:59;56.13;;;48.82;;
73132;SDS011;61320;52.008;4.530;2023-03-19T08:13:25;55.61;;;49.30;;
73132;SDS011;61320;52.008;4.530;2023-03-19T08:15:51;57.62;;;50.27;;
73132;SDS011;61320;52.008;4.530;2023-03-19T08:18:17;58.69;;;50.76;;
73132;SDS011;61320;52.008;4.530;2023-03-19T08:20:43;58.19;;;50.73;;
73132;SDS011;61320;52.008;4.530;2023-03-19T08:23:12;58.44;;;50.17;;
73132;SDS011;61320;52.008;4.530;2023-03-19T08:25:38;58.98;;;50.40;;
73132;SDS011;61320;52.008;4.530;2023-03-19T08:28:03;59.25;;;50.51;;
73132;SDS011;61320;52.008;4.530;2023-03-19T08:30:29;62.52;;;52.32;;
73132;SDS011;61320;52.008;4.530;2023-03-19T08:32:56;64.78;;;53.10;;
73132;SDS011;61320;52.008;4.530;2023-03-19T08:35:22;69.60;;;56.05;;
73132;SDS011;61320;52.008;4.530;2023-03-19T08:37:51;67.39;;;55.19;;
73132;SDS011;61320;52.008;4.530;2023-03-19T08:40:17;66.31;;;54.28;;
73132;SDS011;61320;52.008;4.530;2023-03-19T08:42:43;69.72;;;56.41;;
73132;SDS011;61320;52.008;4.530;2023-03-19T08:45:09;71.02;;;57.50;;
73132;SDS011;61320;52.008;4.530;2023-03-19T08:47:36;72.51;;;57.70;;
73132;SDS011;61320;52.008;4.530;2023-03-19T08:50:02;70.51;;;56.29;;
73132;SDS011;61320;52.008;4.530;2023-03-19T08:52:28;64.03;;;51.98;;
73132;SDS011;61320;52.008;4.530;2023-03-19T08:54:54;62.52;;;51.72;;
73132;SDS011;61320;52.008;4.530;2023-03-19T08:57:20;63.88;;;52.42;;
73132;SDS011;61320;52.008;4.530;2023-03-19T08:59:45;61.22;;;50.57;;
73132;SDS011;61320;52.008;4.530;2023-03-19T09:02:11;56.15;;;47.06;;
73132;SDS011;61320;52.008;4.530;2023-03-19T09:04:40;55.61;;;47.04;;
73132;SDS011;61320;52.008;4.530;2023-03-19T09:07:10;57.45;;;47.29;;
73132;SDS011;61320;52.008;4.530;2023-03-19T09:09:40;55.73;;;46.32;;
73132;SDS011;61320;52.008;4.530;2023-03-19T09:12:07;53.84;;;45.05;;
73132;SDS011;61320;52.008;4.530;2023-03-19T09:14:34;50.78;;;43.18;;
73132;SDS011;61320;52.008;4.530;2023-03-19T09:17:00;50.75;;;43.08;;
73132;SDS011;61320;52.008;4.530;2023-03-19T09:19:26;49.36;;;42.48;;
73132;SDS011;61320;52.008;4.530;2023-03-19T09:21:51;48.76;;;41.92;;
73132;SDS011;61320;52.008;4.530;2023-03-19T09:24:17;48.94;;;42.63;;
73132;SDS011;61320;52.008;4.530;2023-03-19T09:26:45;48.56;;;42.57;;
73132;SDS011;61320;52.008;4.530;2023-03-19T09:29:11;48.38;;;41.96;;
73132;SDS011;61320;52.008;4.530;2023-03-19T09:31:37;48.35;;;41.32;;
73132;SDS011;61320;52.008;4.530;2023-03-19T09:34:03;47.37;;;41.42;;
73132;SDS011;61320;52.008;4.530;2023-03-19T09:36:31;46.10;;;40.07;;
73132;SDS011;61320;52.008;4.530;2023-03-19T09:38:57;44.07;;;39.50;;
73132;SDS011;61320;52.008;4.530;2023-03-19T09:41:28;46.39;;;40.46;;
73132;SDS011;61320;52.008;4.530;2023-03-19T09:44:20;38.90;;;34.91;;
73132;SDS011;61320;52.008;4.530;2023-03-19T09:47:06;34.52;;;31.87;;
73132;SDS011;61320;52.008;4.530;2023-03-19T09:49:57;31.45;;;29.24;;
73132;SDS011;61320;52.008;4.530;2023-03-19T09:55:12;30.89;;;29.75;;
73132;SDS011;61320;52.008;4.530;2023-03-19T09:58:27;29.96;;;28.64;;
73132;SDS011;61320;52.008;4.530;2023-03-19T10:00:55;31.79;;;30.56;;
73132;SDS011;61320;52.008;4.530;2023-03-19T10:06:29;30.96;;;29.14;;
73132;SDS011;61320;52.008;4.530;2023-03-19T10:17:13;33.72;;;31.73;;
73132;SDS011;61320;52.008;4.530;2023-03-19T10:19:46;34.02;;;31.44;;
73132;SDS011;61320;52.008;4.530;2023-03-19T10:22:18;31.08;;;29.30;;
73132;SDS011;61320;52.008;4.530;2023-03-19T10:24:48;31.24;;;29.19;;
73132;SDS011;61320;52.008;4.530;2023-03-19T10:27:19;29.87;;;28.36;;
73132;SDS011;61320;52.008;4.530;2023-03-19T10:29:47;31.26;;;29.80;;
73132;SDS011;61320;52.008;4.530;2023-03-19T10:35:05;34.90;;;33.03;;
73132;SDS011;61320;52.008;4.530;2023-03-19T10:37:40;34.77;;;32.31;;
73132;SDS011;61320;52.008;4.530;2023-03-19T10:40:10;34.21;;;32.04;;
73132;SDS011;61320;52.008;4.530;2023-03-19T10:43:10;33.70;;;31.98;;
73132;SDS011;61320;52.008;4.530;2023-03-19T10:45:42;33.87;;;32.04;;
73132;SDS011;61320;52.008;4.530;2023-03-19T10:48:11;33.84;;;31.91;;
73132;SDS011;61320;52.008;4.530;2023-03-19T10:50:51;32.81;;;31.32;;
73132;SDS011;61320;52.008;4.530;2023-03-19T10:56:28;31.92;;;30.37;;
73132;SDS011;61320;52.008;4.530;2023-03-19T11:03:59;30.77;;;29.83;;
73132;SDS011;61320;52.008;4.530;2023-03-19T11:06:35;32.47;;;31.22;;
73132;SDS011;61320;52.008;4.530;2023-03-19T11:11:51;33.05;;;31.87;;
73132;SDS011;61320;52.008;4.530;2023-03-19T11:16:55;31.31;;;30.63;;
73132;SDS011;61320;52.008;4.530;2023-03-19T11:19:28;30.62;;;29.70;;
73132;SDS011;61320;52.008;4.530;2023-03-19T11:22:01;29.90;;;28.91;;
73132;SDS011;61320;52.008;4.530;2023-03-19T11:24:30;28.69;;;27.94;;
73132;SDS011;61320;52.008;4.530;2023-03-19T11:26:58;29.34;;;28.36;;
73132;SDS011;61320;52.008;4.530;2023-03-19T11:29:25;30.88;;;29.64;;
73132;SDS011;61320;52.008;4.530;2023-03-19T11:31:56;31.81;;;30.75;;
73132;SDS011;61320;52.008;4.530;2023-03-19T11:34:41;32.33;;;31.42;;
73132;SDS011;61320;52.008;4.530;2023-03-19T11:51:49;35.49;;;34.69;;
73132;SDS011;61320;52.008;4.530;2023-03-19T11:54:33;34.68;;;33.74;;
73132;SDS011;61320;52.008;4.530;2023-03-19T11:57:19;33.62;;;32.70;;
73132;SDS011;61320;52.008;4.530;2023-03-19T12:08:04;33.32;;;32.28;;
73132;SDS011;61320;52.008;4.530;2023-03-19T12:16:28;33.02;;;31.76;;
73132;SDS011;61320;52.008;4.530;2023-03-19T12:32:51;30.94;;;30.21;;
73132;SDS011;61320;52.008;4.530;2023-03-19T12:35:37;31.94;;;31.15;;
73132;SDS011;61320;52.008;4.530;2023-03-19T12:43:24;30.12;;;29.39;;
73132;SDS011;61320;52.008;4.530;2023-03-19T12:46:04;29.43;;;28.72;;
73132;SDS011;61320;52.008;4.530;2023-03-19T12:49:13;24.02;;;23.51;;
73132;SDS011;61320;52.008;4.530;2023-03-19T12:51:35;22.47;;;22.08;;
73132;SDS011;61320;52.008;4.530;2023-03-19T12:56:45;19.20;;;18.78;;
73132;SDS011;61320;52.008;4.530;2023-03-19T13:04:48;18.48;;;18.30;;
73132;SDS011;61320;52.008;4.530;2023-03-19T13:07:25;17.09;;;16.75;;
73132;SDS011;61320;52.008;4.530;2023-03-19T13:10:08;19.74;;;19.46;;
73132;SDS011;61320;52.008;4.530;2023-03-19T13:12:45;18.51;;;18.05;;
73132;SDS011;61320;52.008;4.530;2023-03-19T13:20:24;18.74;;;18.15;;
73132;SDS011;61320;52.008;4.530;2023-03-19T13:23:08;17.76;;;17.49;;
73132;SDS011;61320;52.008;4.530;2023-03-19T13:25:40;17.25;;;17.01;;
73132;SDS011;61320;52.008;4.530;2023-03-19T13:28:17;17.10;;;16.87;;
73132;SDS011;61320;52.008;4.530;2023-03-19T13:31:01;16.18;;;15.95;;
73132;SDS011;61320;52.008;4.530;2023-03-19T13:33:32;16.30;;;15.77;;
73132;SDS011;61320;52.008;4.530;2023-03-19T13:36:11;15.18;;;14.96;;
73132;SDS011;61320;52.008;4.530;2023-03-19T13:38:39;16.51;;;16.28;;
73132;SDS011;61320;52.008;4.530;2023-03-19T13:43:56;18.08;;;17.80;;
73132;SDS011;61320;52.008;4.530;2023-03-19T13:48:51;17.52;;;17.20;;
73132;SDS011;61320;52.008;4.530;2023-03-19T13:56:54;18.02;;;17.68;;
73132;SDS011;61320;52.008;4.530;2023-03-19T13:59:45;17.43;;;17.27;;
73132;SDS011;61320;52.008;4.530;2023-03-19T14:04:49;18.19;;;17.81;;
73132;SDS011;61320;52.008;4.530;2023-03-19T14:07:23;16.53;;;16.30;;
73132;SDS011;61320;52.008;4.530;2023-03-19T14:12:24;17.77;;;17.29;;
73132;SDS011;61320;52.008;4.530;2023-03-19T14:22:36;20.38;;;20.08;;
73132;SDS011;61320;52.008;4.530;2023-03-19T14:25:21;21.14;;;20.68;;
73132;SDS011;61320;52.008;4.530;2023-03-19T14:27:51;20.87;;;20.56;;
73132;SDS011;61320;52.008;4.530;2023-03-19T14:32:48;21.80;;;21.59;;
73132;SDS011;61320;52.008;4.530;2023-03-19T14:35:17;21.88;;;21.67;;
73132;SDS011;61320;52.008;4.530;2023-03-19T14:37:49;20.55;;;20.44;;
73132;SDS011;61320;52.008;4.530;2023-03-19T14:40:23;21.24;;;20.94;;
73132;SDS011;61320;52.008;4.530;2023-03-19T14:45:40;20.40;;;20.24;;
73132;SDS011;61320;52.008;4.530;2023-03-19T14:54:01;18.58;;;18.44;;
73132;SDS011;61320;52.008;4.530;2023-03-19T14:56:40;16.66;;;16.64;;
73132;SDS011;61320;52.008;4.530;2023-03-19T14:59:07;17.26;;;17.20;;
73132;SDS011;61320;52.008;4.530;2023-03-19T15:01:38;16.82;;;16.77;;
73132;SDS011;61320;52.008;4.530;2023-03-19T15:04:08;17.65;;;17.44;;
73132;SDS011;61320;52.008;4.530;2023-03-19T15:06:37;17.36;;;17.32;;
73132;SDS011;61320;52.008;4.530;2023-03-19T15:09:06;17.22;;;17.22;;
73132;SDS011;61320;52.008;4.530;2023-03-19T15:14:15;16.66;;;16.61;;
73132;SDS011;61320;52.008;4.530;2023-03-19T15:17:14;16.94;;;16.94;;
73132;SDS011;61320;52.008;4.530;2023-03-19T15:19:52;17.12;;;17.10;;
73132;SDS011;61320;52.008;4.530;2023-03-19T15:22:33;17.09;;;17.09;;
73132;SDS011;61320;52.008;4.530;2023-03-19T15:27:37;17.36;;;17.33;;
73132;SDS011;61320;52.008;4.530;2023-03-19T15:30:18;16.71;;;16.70;;
73132;SDS011;61320;52.008;4.530;2023-03-19T15:32:48;17.37;;;17.37;;
73132;SDS011;61320;52.008;4.530;2023-03-19T15:35:14;16.03;;;16.01;;
73132;SDS011;61320;52.008;4.530;2023-03-19T15:37:41;15.53;;;15.50;;
73132;SDS011;61320;52.008;4.530;2023-03-19T15:40:14;15.67;;;15.64;;
73132;SDS011;61320;52.008;4.530;2023-03-19T15:42:45;16.12;;;16.02;;
73132;SDS011;61320;52.008;4.530;2023-03-19T15:45:13;15.95;;;15.89;;
73132;SDS011;61320;52.008;4.530;2023-03-19T15:50:19;17.28;;;17.28;;
73132;SDS011;61320;52.008;4.530;2023-03-19T15:52:50;17.79;;;17.79;;
73132;SDS011;61320;52.008;4.530;2023-03-19T15:55:21;16.92;;;16.90;;
73132;SDS011;61320;52.008;4.530;2023-03-19T15:57:50;15.42;;;15.42;;
73132;SDS011;61320;52.008;4.530;2023-03-19T16:00:19;14.85;;;14.73;;
73132;SDS011;61320;52.008;4.530;2023-03-19T16:02:46;16.56;;;16.09;;
73132;SDS011;61320;52.008;4.530;2023-03-19T16:05:24;15.76;;;15.53;;
73132;SDS011;61320;52.008;4.530;2023-03-19T16:07:53;13.76;;;13.60;;
73132;SDS011;61320;52.008;4.530;2023-03-19T16:12:53;13.25;;;13.19;;
73132;SDS011;61320;52.008;4.530;2023-03-19T16:18:07;14.29;;;14.07;;
73132;SDS011;61320;52.008;4.530;2023-03-19T16:21:28;15.53;;;15.29;;
73132;SDS011;61320;52.008;4.530;2023-03-19T16:29:37;16.21;;;15.91;;
73132;SDS011;61320;52.008;4.530;2023-03-19T16:31:51;16.79;;;16.64;;
73132;SDS011;61320;52.008;4.530;2023-03-19T16:34:41;17.16;;;17.03;;
73132;SDS011;61320;52.008;4.530;2023-03-19T16:42:40;20.75;;;20.41;;
73132;SDS011;61320;52.008;4.530;2023-03-19T16:47:39;19.41;;;18.83;;
73132;SDS011;61320;52.008;4.530;2023-03-19T16:50:05;19.91;;;19.49;;
73132;SDS011;61320;52.008;4.530;2023-03-19T16:52:31;21.68;;;21.23;;
73132;SDS011;61320;52.008;4.530;2023-03-19T16:54:57;22.74;;;22.17;;
73132;SDS011;61320;52.008;4.530;2023-03-19T16:57:24;22.70;;;22.32;;
73132;SDS011;61320;52.008;4.530;2023-03-19T16:59:51;25.10;;;24.45;;
73132;SDS011;61320;52.008;4.530;2023-03-19T17:02:17;23.09;;;22.38;;
73132;SDS011;61320;52.008;4.530;2023-03-19T17:04:43;21.59;;;20.90;;
73132;SDS011;61320;52.008;4.530;2023-03-19T17:07:09;22.30;;;21.72;;